Back to Top

Language: 

My Weather Underground Personal Weather Station Historical Data with Graphs...

Delerius Weather Station Historical Data
Daily Summary for March 1, 2017 Units:  Both    English   Metric
« Previous Day
Next Day »
Daily Weekly Monthly Yearly Custom
  High: Low: Average:
Temperature: 48.0 °F /  8.9 °C 34.5 °F /  1.4 °C 40.3 °F /  4.6 °C
Dew Point: 39.5 °F /  4.2 °C 32.4 °F /  0.2 °C 36 °F /  2.2 °C
Humidity: 95 % 67 % 85 %
Wind Speed: 14.0 mph /  22.5 km/h - 4.7 mph /  7.6 km/h
Wind Gust: 22.0 mph /  35.4 km/h - -
Wind:- - West
Pressure: 29.42 in /  996.2 hPa 29.32 in /  992.8 hPa -
Precipitation: 0.00 in /  0 mm    
Historical Graphs
 
 
Tabular Data for March 1, 2017
Time Temperature Dew Point Pressure Wind Wind Speed Wind Gust Humidity Rainfall Rate (Hourly) solar Conditions
00:00 37.6 °F /  3.1 °C 35.5 °F /  1.9 °C 29.32 in /  992.8 hPa WNW 6.0 mph /  9.7 km/h 8.0 mph /  12.9 km/h 92 % 0.00 in /  0 mm 0 W/m2
00:05 37.6 °F /  3.1 °C 35.5 °F /  1.9 °C 29.32 in /  992.8 hPa WNW 6.0 mph /  9.7 km/h 8.0 mph /  12.9 km/h 92 % 0.00 in /  0 mm 0 W/m2
00:15 37.4 °F /  3 °C 35.3 °F /  1.8 °C 29.32 in /  992.8 hPa WNW 5.0 mph /  8 km/h 7.0 mph /  11.3 km/h 92 % 0.00 in /  0 mm 0 W/m2
00:25 37.2 °F /  2.9 °C 35.1 °F /  1.7 °C 29.32 in /  992.8 hPa WNW 3.0 mph /  4.8 km/h 5.0 mph /  8 km/h 92 % 0.00 in /  0 mm 0 W/m2
00:30 37.1 °F /  2.8 °C 35.0 °F /  1.7 °C 29.33 in /  993.1 hPa WNW 2.0 mph /  3.2 km/h 3.0 mph /  4.8 km/h 92 % 0.00 in /  0 mm 0 W/m2
00:35 36.9 °F /  2.7 °C 34.8 °F /  1.6 °C 29.33 in /  993.1 hPa WNW 3.0 mph /  4.8 km/h 3.0 mph /  4.8 km/h 92 % 0.00 in /  0 mm 0 W/m2
00:40 36.8 °F /  2.7 °C 34.7 °F /  1.5 °C 29.33 in /  993.1 hPa WNW 3.0 mph /  4.8 km/h 3.0 mph /  4.8 km/h 92 % 0.00 in /  0 mm 0 W/m2
00:45 36.8 °F /  2.7 °C 35.0 °F /  1.7 °C 29.33 in /  993.1 hPa WNW 4.0 mph /  6.4 km/h 6.0 mph /  9.7 km/h 93 % 0.00 in /  0 mm 0 W/m2
00:55 36.8 °F /  2.7 °C 35.0 °F /  1.7 °C 29.32 in /  992.8 hPa NW 3.0 mph /  4.8 km/h 4.0 mph /  6.4 km/h 93 % 0.00 in /  0 mm 0 W/m2
01:00 36.8 °F /  2.7 °C 35.0 °F /  1.7 °C 29.33 in /  993.1 hPa WNW 3.0 mph /  4.8 km/h 6.0 mph /  9.7 km/h 93 % 0.00 in /  0 mm 0 W/m2
01:05 36.8 °F /  2.7 °C 35.0 °F /  1.7 °C 29.34 in /  993.5 hPa WNW 4.0 mph /  6.4 km/h 10.0 mph /  16.1 km/h 93 % 0.00 in /  0 mm 0 W/m2
01:10 36.7 °F /  2.6 °C 34.9 °F /  1.6 °C 29.34 in /  993.5 hPa WNW 5.0 mph /  8 km/h 5.0 mph /  8 km/h 93 % 0.00 in /  0 mm 0 W/m2
01:15 36.7 °F /  2.6 °C 34.9 °F /  1.6 °C 29.35 in /  993.8 hPa WNW 3.0 mph /  4.8 km/h 10.0 mph /  16.1 km/h 93 % 0.00 in /  0 mm 0 W/m2
01:20 36.6 °F /  2.6 °C 34.8 °F /  1.6 °C 29.35 in /  993.8 hPa WNW 4.0 mph /  6.4 km/h 10.0 mph /  16.1 km/h 93 % 0.00 in /  0 mm 0 W/m2
01:30 36.5 °F /  2.5 °C 34.7 °F /  1.5 °C 29.35 in /  993.8 hPa WNW 6.0 mph /  9.7 km/h 6.0 mph /  9.7 km/h 93 % 0.00 in /  0 mm 0 W/m2
01:35 36.6 °F /  2.6 °C 34.8 °F /  1.6 °C 29.35 in /  993.8 hPa WNW 5.0 mph /  8 km/h 10.0 mph /  16.1 km/h 93 % 0.00 in /  0 mm 0 W/m2
01:40 36.6 °F /  2.6 °C 34.8 °F /  1.6 °C 29.35 in /  993.8 hPa WNW 5.0 mph /  8 km/h 5.0 mph /  8 km/h 93 % 0.00 in /  0 mm 0 W/m2
01:45 36.5 °F /  2.5 °C 34.7 °F /  1.5 °C 29.35 in /  993.8 hPa WNW 4.0 mph /  6.4 km/h 10.0 mph /  16.1 km/h 93 % 0.00 in /  0 mm 0 W/m2
01:50 36.3 °F /  2.4 °C 34.5 °F /  1.4 °C 29.35 in /  993.8 hPa WNW 3.0 mph /  4.8 km/h 10.0 mph /  16.1 km/h 93 % 0.00 in /  0 mm 0 W/m2
02:00 36.2 °F /  2.3 °C 34.4 °F /  1.3 °C 29.37 in /  994.5 hPa WNW 3.0 mph /  4.8 km/h 3.0 mph /  4.8 km/h 93 % 0.00 in /  0 mm 0 W/m2
02:05 36.1 °F /  2.3 °C 34.0 °F /  1.1 °C 29.37 in /  994.5 hPa WNW 2.0 mph /  3.2 km/h 10.0 mph /  16.1 km/h 92 % 0.00 in /  0 mm 0 W/m2
02:10 35.9 °F /  2.2 °C 33.8 °F /  1 °C 29.37 in /  994.5 hPa Calm   10.0 mph /  16.1 km/h 92 % 0.00 in /  0 mm 0 W/m2
02:15 35.6 °F /  2 °C 33.5 °F /  0.8 °C 29.37 in /  994.5 hPa Calm   10.0 mph /  16.1 km/h 92 % 0.00 in /  0 mm 0 W/m2
02:20 35.4 °F /  1.9 °C 33.3 °F /  0.7 °C 29.38 in /  994.8 hPa Calm   10.0 mph /  16.1 km/h 92 % 0.00 in /  0 mm 0 W/m2
02:30 35.2 °F /  1.8 °C 33.1 °F /  0.6 °C 29.38 in /  994.8 hPa Calm   10.0 mph /  16.1 km/h 92 % 0.00 in /  0 mm 0 W/m2
02:35 35.0 °F /  1.7 °C 33.2 °F /  0.7 °C 29.37 in /  994.5 hPa Calm   10.0 mph /  16.1 km/h 93 % 0.00 in /  0 mm 0 W/m2
02:40 34.9 °F /  1.6 °C 33.1 °F /  0.6 °C 29.37 in /  994.5 hPa WNW 1.0 mph /  1.6 km/h 10.0 mph /  16.1 km/h 93 % 0.00 in /  0 mm 0 W/m2
02:50 34.8 °F /  1.6 °C 33.0 °F /  0.6 °C 29.38 in /  994.8 hPa WNW 1.0 mph /  1.6 km/h 1.0 mph /  1.6 km/h 93 % 0.00 in /  0 mm 0 W/m2
02:55 34.7 °F /  1.5 °C 32.9 °F /  0.5 °C 29.37 in /  994.5 hPa Calm   10.0 mph /  16.1 km/h 93 % 0.00 in /  0 mm 0 W/m2
03:00 34.7 °F /  1.5 °C 32.9 °F /  0.5 °C 29.38 in /  994.8 hPa WNW 1.0 mph /  1.6 km/h 1.0 mph /  1.6 km/h 93 % 0.00 in /  0 mm 0 W/m2
03:10 34.5 °F /  1.4 °C 32.7 °F /  0.4 °C 29.37 in /  994.5 hPa WNW 1.0 mph /  1.6 km/h 1.0 mph /  1.6 km/h 93 % 0.00 in /  0 mm 0 W/m2
03:15 34.7 °F /  1.5 °C 33.2 °F /  0.7 °C 29.37 in /  994.5 hPa West 1.0 mph /  1.6 km/h 10.0 mph /  16.1 km/h 94 % 0.00 in /  0 mm 0 W/m2
03:20 34.9 °F /  1.6 °C 33.3 °F /  0.7 °C 29.36 in /  994.1 hPa West 1.0 mph /  1.6 km/h 1.0 mph /  1.6 km/h 94 % 0.00 in /  0 mm 0 W/m2
03:25 35.0 °F /  1.7 °C 33.4 °F /  0.8 °C 29.37 in /  994.5 hPa West 1.0 mph /  1.6 km/h 10.0 mph /  16.1 km/h 94 % 0.00 in /  0 mm 0 W/m2
03:30 34.9 °F /  1.6 °C 33.3 °F /  0.7 °C 29.37 in /  994.5 hPa Calm   10.0 mph /  16.1 km/h 94 % 0.00 in /  0 mm 0 W/m2
03:40 34.7 °F /  1.5 °C 32.9 °F /  0.5 °C 29.38 in /  994.8 hPa Calm   10.0 mph /  16.1 km/h 93 % 0.00 in /  0 mm 0 W/m2
03:45 34.9 °F /  1.6 °C 33.3 °F /  0.7 °C 29.39 in /  995.1 hPa SSW 2.0 mph /  3.2 km/h 10.0 mph /  16.1 km/h 94 % 0.00 in /  0 mm 0 W/m2
03:50 35.3 °F /  1.8 °C 33.7 °F /  0.9 °C 29.39 in /  995.1 hPa SSW 3.0 mph /  4.8 km/h 10.0 mph /  16.1 km/h 94 % 0.00 in /  0 mm 0 W/m2
03:55 35.9 °F /  2.2 °C 34.6 °F /  1.4 °C 29.39 in /  995.1 hPa SSW 5.0 mph /  8 km/h 10.0 mph /  16.1 km/h 95 % 0.00 in /  0 mm 0 W/m2
04:00 36.2 °F /  2.3 °C 34.6 °F /  1.4 °C 29.39 in /  995.1 hPa West 5.0 mph /  8 km/h 5.0 mph /  8 km/h 94 % 0.00 in /  0 mm 0 W/m2
04:05 36.1 °F /  2.3 °C 34.3 °F /  1.3 °C 29.39 in /  995.1 hPa West 3.0 mph /  4.8 km/h 10.0 mph /  16.1 km/h 93 % 0.00 in /  0 mm 0 W/m2
04:15 36.3 °F /  2.4 °C 34.5 °F /  1.4 °C 29.39 in /  995.1 hPa West 3.0 mph /  4.8 km/h 10.0 mph /  16.1 km/h 93 % 0.00 in /  0 mm 0 W/m2
04:20 36.3 °F /  2.4 °C 34.5 °F /  1.4 °C 29.39 in /  995.1 hPa WSW 3.0 mph /  4.8 km/h 10.0 mph /  16.1 km/h 93 % 0.00 in /  0 mm 0 W/m2
04:25 36.3 °F /  2.4 °C 34.5 °F /  1.4 °C 29.39 in /  995.1 hPa WSW 2.0 mph /  3.2 km/h 10.0 mph /  16.1 km/h 93 % 0.00 in /  0 mm 0 W/m2
04:30 36.3 °F /  2.4 °C 34.5 °F /  1.4 °C 29.39 in /  995.1 hPa WSW 1.0 mph /  1.6 km/h 10.0 mph /  16.1 km/h 93 % 0.00 in /  0 mm 0 W/m2
04:35 36.3 °F /  2.4 °C 34.5 °F /  1.4 °C 29.39 in /  995.1 hPa SSW 1.0 mph /  1.6 km/h 10.0 mph /  16.1 km/h 93 % 0.00 in /  0 mm 0 W/m2
04:45 36.6 °F /  2.6 °C 34.8 °F /  1.6 °C 29.39 in /  995.1 hPa SW 2.0 mph /  3.2 km/h 10.0 mph /  16.1 km/h 93 % 0.00 in /  0 mm 0 W/m2
04:50 36.8 °F /  2.7 °C 35.0 °F /  1.7 °C 29.39 in /  995.1 hPa WSW 3.0 mph /  4.8 km/h 10.0 mph /  16.1 km/h 93 % 0.00 in /  0 mm 0 W/m2
04:55 37.1 °F /  2.8 °C 35.3 °F /  1.8 °C 29.39 in /  995.1 hPa SW 4.0 mph /  6.4 km/h 10.0 mph /  16.1 km/h 93 % 0.00 in /  0 mm 0 W/m2
05:00 37.1 °F /  2.8 °C 35.0 °F /  1.7 °C 29.39 in /  995.1 hPa SW 3.0 mph /  4.8 km/h 3.0 mph /  4.8 km/h 92 % 0.00 in /  0 mm 0 W/m2
05:05 37.0 °F /  2.8 °C 34.9 °F /  1.6 °C 29.39 in /  995.1 hPa SW 3.0 mph /  4.8 km/h 5.0 mph /  8 km/h 92 % 0.00 in /  0 mm 0 W/m2
05:10 36.9 °F /  2.7 °C 34.8 °F /  1.6 °C 29.39 in /  995.1 hPa SW 3.0 mph /  4.8 km/h 3.0 mph /  4.8 km/h 92 % 0.00 in /  0 mm 0 W/m2
05:20 36.7 °F /  2.6 °C 34.6 °F /  1.4 °C 29.39 in /  995.1 hPa WNW 4.0 mph /  6.4 km/h 10.0 mph /  16.1 km/h 92 % 0.00 in /  0 mm 0 W/m2
05:25 36.7 °F /  2.6 °C 34.6 °F /  1.4 °C 29.39 in /  995.1 hPa WNW 4.0 mph /  6.4 km/h 10.0 mph /  16.1 km/h 92 % 0.00 in /  0 mm 0 W/m2
05:30 36.5 °F /  2.5 °C 34.4 °F /  1.3 °C 29.39 in /  995.1 hPa WNW 4.0 mph /  6.4 km/h 10.0 mph /  16.1 km/h 92 % 0.00 in /  0 mm 0 W/m2
05:35 36.4 °F /  2.4 °C 34.3 °F /  1.3 °C 29.39 in /  995.1 hPa West 5.0 mph /  8 km/h 10.0 mph /  16.1 km/h 92 % 0.00 in /  0 mm 0 W/m2
05:40 36.5 °F /  2.5 °C 34.4 °F /  1.3 °C 29.39 in /  995.1 hPa West 6.0 mph /  9.7 km/h 10.0 mph /  16.1 km/h 92 % 0.00 in /  0 mm 0 W/m2
05:50 37.2 °F /  2.9 °C 35.1 °F /  1.7 °C 29.40 in /  995.5 hPa West 7.0 mph /  11.3 km/h 10.0 mph /  16.1 km/h 92 % 0.00 in /  0 mm 0 W/m2
05:55 37.3 °F /  2.9 °C 35.2 °F /  1.8 °C 29.40 in /  995.5 hPa WSW 7.0 mph /  11.3 km/h 10.0 mph /  16.1 km/h 92 % 0.00 in /  0 mm 0 W/m2
06:00 37.5 °F /  3.1 °C 35.4 °F /  1.9 °C 29.40 in /  995.5 hPa WNW 8.0 mph /  12.9 km/h 12.0 mph /  19.3 km/h 92 % 0.00 in /  0 mm 0 W/m2
06:05 37.7 °F /  3.2 °C 35.6 °F /  2 °C 29.40 in /  995.5 hPa West 10.0 mph /  16.1 km/h 12.0 mph /  19.3 km/h 92 % 0.00 in /  0 mm 0 W/m2
06:10 37.8 °F /  3.2 °C 35.4 °F /  1.9 °C 29.40 in /  995.5 hPa WSW 10.0 mph /  16.1 km/h 10.0 mph /  16.1 km/h 91 % 0.00 in /  0 mm 0 W/m2
06:20 37.7 °F /  3.2 °C 35.3 °F /  1.8 °C 29.40 in /  995.5 hPa WNW 8.0 mph /  12.9 km/h 10.0 mph /  16.1 km/h 91 % 0.00 in /  0 mm 0 W/m2
06:25 37.7 °F /  3.2 °C 35.6 °F /  2 °C 29.40 in /  995.5 hPa West 9.0 mph /  14.5 km/h 11.0 mph /  17.7 km/h 92 % 0.00 in /  0 mm 0 W/m2
06:35 37.5 °F /  3.1 °C 35.4 °F /  1.9 °C 29.40 in /  995.5 hPa West 10.0 mph /  16.1 km/h 10.0 mph /  16.1 km/h 92 % 0.00 in /  0 mm 0 W/m2
06:40 37.5 °F /  3.1 °C 35.4 °F /  1.9 °C 29.40 in /  995.5 hPa West 9.0 mph /  14.5 km/h 9.0 mph /  14.5 km/h 92 % 0.00 in /  0 mm 0 W/m2
06:45 37.6 °F /  3.1 °C 35.5 °F /  1.9 °C 29.40 in /  995.5 hPa West 9.0 mph /  14.5 km/h 10.0 mph /  16.1 km/h 92 % 0.00 in /  0 mm 0 W/m2
06:50 37.6 °F /  3.1 °C 35.5 °F /  1.9 °C 29.40 in /  995.5 hPa West 9.0 mph /  14.5 km/h 10.0 mph /  16.1 km/h 92 % 0.00 in /  0 mm 0 W/m2
07:00 37.6 °F /  3.1 °C 35.5 °F /  1.9 °C 29.41 in /  995.8 hPa West 8.0 mph /  12.9 km/h 13.0 mph /  20.9 km/h 92 % 0.00 in /  0 mm 7 W/m2
07:05 37.5 °F /  3.1 °C 35.4 °F /  1.9 °C 29.41 in /  995.8 hPa West 8.0 mph /  12.9 km/h 13.0 mph /  20.9 km/h 92 % 0.00 in /  0 mm 11 W/m2
07:10 37.5 °F /  3.1 °C 35.4 °F /  1.9 °C 29.41 in /  995.8 hPa West 8.0 mph /  12.9 km/h 8.0 mph /  12.9 km/h 92 % 0.00 in /  0 mm 18 W/m2
07:15 37.4 °F /  3 °C 35.3 °F /  1.8 °C 29.41 in /  995.8 hPa WSW 5.0 mph /  8 km/h 10.0 mph /  16.1 km/h 92 % 0.00 in /  0 mm 21 W/m2
07:20 37.3 °F /  2.9 °C 35.2 °F /  1.8 °C 29.41 in /  995.8 hPa WSW 2.0 mph /  3.2 km/h 2.0 mph /  3.2 km/h 92 % 0.00 in /  0 mm 40 W/m2
07:30 37.2 °F /  2.9 °C 35.1 °F /  1.7 °C 29.41 in /  995.8 hPa Calm   10.0 mph /  16.1 km/h 92 % 0.00 in /  0 mm 90 W/m2
07:35 37.5 °F /  3.1 °C 35.4 °F /  1.9 °C 29.41 in /  995.8 hPa Calm   10.0 mph /  16.1 km/h 92 % 0.00 in /  0 mm 97 W/m2
07:40 37.8 °F /  3.2 °C 35.7 °F /  2.1 °C 29.41 in /  995.8 hPa WSW 1.0 mph /  1.6 km/h 10.0 mph /  16.1 km/h 92 % 0.00 in /  0 mm 70 W/m2
07:45 38.0 °F /  3.3 °C 35.6 °F /  2 °C 29.41 in /  995.8 hPa WSW 2.0 mph /  3.2 km/h 10.0 mph /  16.1 km/h 91 % 0.00 in /  0 mm 74 W/m2
07:50 38.1 °F /  3.4 °C 35.7 °F /  2.1 °C 29.41 in /  995.8 hPa WSW 2.0 mph /  3.2 km/h 10.0 mph /  16.1 km/h 91 % 0.00 in /  0 mm 58 W/m2
07:55 38.2 °F /  3.4 °C 35.8 °F /  2.1 °C 29.40 in /  995.5 hPa WSW 2.0 mph /  3.2 km/h 10.0 mph /  16.1 km/h 91 % 0.00 in /  0 mm 120 W/m2
08:05 38.6 °F /  3.7 °C 35.9 °F /  2.2 °C 29.41 in /  995.8 hPa WSW 2.0 mph /  3.2 km/h 10.0 mph /  16.1 km/h 90 % 0.00 in /  0 mm 54 W/m2
08:10 38.7 °F /  3.7 °C 36.0 °F /  2.2 °C 29.41 in /  995.8 hPa WSW 2.0 mph /  3.2 km/h 2.0 mph /  3.2 km/h 90 % 0.00 in /  0 mm 60 W/m2
08:15 38.8 °F /  3.8 °C 35.8 °F /  2.1 °C 29.41 in /  995.8 hPa WSW 2.0 mph /  3.2 km/h 10.0 mph /  16.1 km/h 89 % 0.00 in /  0 mm 65 W/m2
08:25 38.8 °F /  3.8 °C 35.8 °F /  2.1 °C 29.41 in /  995.8 hPa SW 2.0 mph /  3.2 km/h 10.0 mph /  16.1 km/h 89 % 0.00 in /  0 mm 74 W/m2
08:30 38.9 °F /  3.8 °C 35.9 °F /  2.2 °C 29.41 in /  995.8 hPa SW 2.0 mph /  3.2 km/h 10.0 mph /  16.1 km/h 89 % 0.00 in /  0 mm 74 W/m2
08:40 39.1 °F /  3.9 °C 36.1 °F /  2.3 °C 29.41 in /  995.8 hPa WSW 3.0 mph /  4.8 km/h 10.0 mph /  16.1 km/h 89 % 0.00 in /  0 mm 72 W/m2
08:45 39.2 °F /  4 °C 36.2 °F /  2.3 °C 29.41 in /  995.8 hPa SW 2.0 mph /  3.2 km/h 10.0 mph /  16.1 km/h 89 % 0.00 in /  0 mm 91 W/m2
08:50 39.3 °F /  4.1 °C 36.3 °F /  2.4 °C 29.42 in /  996.2 hPa West 3.0 mph /  4.8 km/h 10.0 mph /  16.1 km/h 89 % 0.00 in /  0 mm 102 W/m2
08:55 39.5 °F /  4.2 °C 36.2 °F /  2.3 °C 29.41 in /  995.8 hPa SW 4.0 mph /  6.4 km/h 10.0 mph /  16.1 km/h 88 % 0.00 in /  0 mm 104 W/m2
09:05 39.9 °F /  4.4 °C 36.6 °F /  2.6 °C 29.41 in /  995.8 hPa SW 3.0 mph /  4.8 km/h 10.0 mph /  16.1 km/h 88 % 0.00 in /  0 mm 121 W/m2
09:15 40.3 °F /  4.6 °C 37.0 °F /  2.8 °C 29.41 in /  995.8 hPa Calm   10.0 mph /  16.1 km/h 88 % 0.00 in /  0 mm 155 W/m2
09:20 40.6 °F /  4.8 °C 37.3 °F /  2.9 °C 29.41 in /  995.8 hPa Calm   10.0 mph /  16.1 km/h 88 % 0.00 in /  0 mm 146 W/m2
09:25 40.8 °F /  4.9 °C 37.2 °F /  2.9 °C 29.41 in /  995.8 hPa SW 1.0 mph /  1.6 km/h 10.0 mph /  16.1 km/h 87 % 0.00 in /  0 mm 139 W/m2
09:30 41.0 °F /  5 °C 37.4 °F /  3 °C 29.41 in /  995.8 hPa SW 1.0 mph /  1.6 km/h 1.0 mph /  1.6 km/h 87 % 0.00 in /  0 mm 134 W/m2
09:35 41.2 °F /  5.1 °C 37.3 °F /  2.9 °C 29.41 in /  995.8 hPa SW 1.0 mph /  1.6 km/h 3.0 mph /  4.8 km/h 86 % 0.00 in /  0 mm 183 W/m2
09:45 41.6 °F /  5.3 °C 37.4 °F /  3 °C 29.41 in /  995.8 hPa Calm   10.0 mph /  16.1 km/h 85 % 0.00 in /  0 mm 162 W/m2
09:50 41.9 °F /  5.5 °C 37.7 °F /  3.2 °C 29.42 in /  996.2 hPa Calm   10.0 mph /  16.1 km/h 85 % 0.00 in /  0 mm 162 W/m2
09:55 42.1 °F /  5.6 °C 37.9 °F /  3.3 °C 29.41 in /  995.8 hPa SSW 1.0 mph /  1.6 km/h 10.0 mph /  16.1 km/h 85 % 0.00 in /  0 mm 176 W/m2
10:00 42.3 °F /  5.7 °C 38.1 °F /  3.4 °C 29.42 in /  996.2 hPa WSW 3.0 mph /  4.8 km/h 10.0 mph /  16.1 km/h 85 % 0.00 in /  0 mm 206 W/m2
10:05 42.6 °F /  5.9 °C 38.4 °F /  3.6 °C 29.42 in /  996.2 hPa West 5.0 mph /  8 km/h 10.0 mph /  16.1 km/h 85 % 0.00 in /  0 mm 223 W/m2
10:10 42.9 °F /  6.1 °C 38.7 °F /  3.7 °C 29.41 in /  995.8 hPa WSW 5.0 mph /  8 km/h 10.0 mph /  16.1 km/h 85 % 0.00 in /  0 mm 237 W/m2
10:20 43.3 °F /  6.3 °C 38.5 °F /  3.6 °C 29.42 in /  996.2 hPa West 8.0 mph /  12.9 km/h 8.0 mph /  12.9 km/h 83 % 0.00 in /  0 mm 239 W/m2
10:25 43.4 °F /  6.3 °C 38.6 °F /  3.7 °C 29.42 in /  996.2 hPa West 6.0 mph /  9.7 km/h 10.0 mph /  16.1 km/h 83 % 0.00 in /  0 mm 214 W/m2
10:30 43.6 °F /  6.4 °C 38.8 °F /  3.8 °C 29.42 in /  996.2 hPa WSW 7.0 mph /  11.3 km/h 11.0 mph /  17.7 km/h 83 % 0.00 in /  0 mm 225 W/m2
10:40 43.8 °F /  6.6 °C 39.0 °F /  3.9 °C 29.41 in /  995.8 hPa West 8.0 mph /  12.9 km/h 11.0 mph /  17.7 km/h 83 % 0.00 in /  0 mm 272 W/m2
10:45 43.9 °F /  6.6 °C 38.8 °F /  3.8 °C 29.41 in /  995.8 hPa WSW 8.0 mph /  12.9 km/h 11.0 mph /  17.7 km/h 82 % 0.00 in /  0 mm 283 W/m2
10:55 44.3 °F /  6.8 °C 38.5 °F /  3.6 °C 29.41 in /  995.8 hPa West 11.0 mph /  17.7 km/h 13.0 mph /  20.9 km/h 80 % 0.00 in /  0 mm 283 W/m2
11:00 44.5 °F /  6.9 °C 38.7 °F /  3.7 °C 29.41 in /  995.8 hPa WSW 11.0 mph /  17.7 km/h 22.0 mph /  35.4 km/h 80 % 0.00 in /  0 mm 241 W/m2
11:05 44.4 °F /  6.9 °C 38.0 °F /  3.3 °C 29.41 in /  995.8 hPa West 13.0 mph /  20.9 km/h 22.0 mph /  35.4 km/h 78 % 0.00 in /  0 mm 274 W/m2
11:10 44.5 °F /  6.9 °C 38.4 °F /  3.6 °C 29.41 in /  995.8 hPa West 12.0 mph /  19.3 km/h 18.0 mph /  29 km/h 79 % 0.00 in /  0 mm 311 W/m2
11:15 44.6 °F /  7 °C 38.5 °F /  3.6 °C 29.41 in /  995.8 hPa WNW 11.0 mph /  17.7 km/h 18.0 mph /  29 km/h 79 % 0.00 in /  0 mm 295 W/m2
11:25 45.0 °F /  7.2 °C 38.6 °F /  3.7 °C 29.40 in /  995.5 hPa West 10.0 mph /  16.1 km/h 12.0 mph /  19.3 km/h 78 % 0.00 in /  0 mm 390 W/m2
11:30 45.4 °F /  7.4 °C 38.3 °F /  3.5 °C 29.41 in /  995.8 hPa WSW 11.0 mph /  17.7 km/h 11.0 mph /  17.7 km/h 76 % 0.00 in /  0 mm 381 W/m2
11:35 45.6 °F /  7.6 °C 38.5 °F /  3.6 °C 29.40 in /  995.5 hPa WNW 11.0 mph /  17.7 km/h 11.0 mph /  17.7 km/h 76 % 0.00 in /  0 mm 378 W/m2
11:40 45.8 °F /  7.7 °C 38.3 °F /  3.5 °C 29.40 in /  995.5 hPa West 11.0 mph /  17.7 km/h 12.0 mph /  19.3 km/h 75 % 0.00 in /  0 mm 338 W/m2
11:45 45.8 °F /  7.7 °C 38.0 °F /  3.3 °C 29.40 in /  995.5 hPa West 12.0 mph /  19.3 km/h 12.0 mph /  19.3 km/h 74 % 0.00 in /  0 mm 250 W/m2
11:50 45.4 °F /  7.4 °C 37.9 °F /  3.3 °C 29.40 in /  995.5 hPa WSW 13.0 mph /  20.9 km/h 18.0 mph /  29 km/h 75 % 0.00 in /  0 mm 221 W/m2
12:00 44.9 °F /  7.2 °C 38.1 °F /  3.4 °C 29.40 in /  995.5 hPa WSW 12.0 mph /  19.3 km/h 12.0 mph /  19.3 km/h 77 % 0.00 in /  0 mm 260 W/m2
12:05 44.9 °F /  7.2 °C 38.1 °F /  3.4 °C 29.40 in /  995.5 hPa SW 10.0 mph /  16.1 km/h 14.0 mph /  22.5 km/h 77 % 0.00 in /  0 mm 241 W/m2
12:15 45.2 °F /  7.3 °C 38.1 °F /  3.4 °C 29.40 in /  995.5 hPa West 12.0 mph /  19.3 km/h 20.0 mph /  32.2 km/h 76 % 0.00 in /  0 mm 316 W/m2
12:20 45.5 °F /  7.5 °C 38.0 °F /  3.3 °C 29.40 in /  995.5 hPa West 12.0 mph /  19.3 km/h 13.0 mph /  20.9 km/h 75 % 0.00 in /  0 mm 332 W/m2
12:25 45.7 °F /  7.6 °C 38.6 °F /  3.7 °C 29.40 in /  995.5 hPa West 11.0 mph /  17.7 km/h 13.0 mph /  20.9 km/h 76 % 0.00 in /  0 mm 462 W/m2
12:35 46.2 °F /  7.9 °C 38.7 °F /  3.7 °C 29.39 in /  995.1 hPa WNW 10.0 mph /  16.1 km/h 11.0 mph /  17.7 km/h 75 % 0.00 in /  0 mm 257 W/m2
12:40 46.2 °F /  7.9 °C 39.1 °F /  3.9 °C 29.39 in /  995.1 hPa WSW 9.0 mph /  14.5 km/h 10.0 mph /  16.1 km/h 76 % 0.00 in /  0 mm 232 W/m2
12:45 46.3 °F /  7.9 °C 38.8 °F /  3.8 °C 29.39 in /  995.1 hPa WSW 10.0 mph /  16.1 km/h 11.0 mph /  17.7 km/h 75 % 0.00 in /  0 mm 264 W/m2
12:50 46.6 °F /  8.1 °C 39.1 °F /  3.9 °C 29.40 in /  995.5 hPa West 10.0 mph /  16.1 km/h 10.0 mph /  16.1 km/h 75 % 0.00 in /  0 mm 552 W/m2
12:55 47.0 °F /  8.3 °C 39.5 °F /  4.2 °C 29.39 in /  995.1 hPa West 10.0 mph /  16.1 km/h 10.0 mph /  16.1 km/h 75 % 0.00 in /  0 mm 598 W/m2
13:05 47.1 °F /  8.4 °C 38.9 °F /  3.8 °C 29.39 in /  995.1 hPa SW 10.0 mph /  16.1 km/h 11.0 mph /  17.7 km/h 73 % 0.00 in /  0 mm 204 W/m2
13:10 47.1 °F /  8.4 °C 38.9 °F /  3.8 °C 29.39 in /  995.1 hPa West 11.0 mph /  17.7 km/h 12.0 mph /  19.3 km/h 73 % 0.00 in /  0 mm 624 W/m2
13:15 47.5 °F /  8.6 °C 38.6 °F /  3.7 °C 29.39 in /  995.1 hPa SW 13.0 mph /  20.9 km/h 13.0 mph /  20.9 km/h 71 % 0.00 in /  0 mm 624 W/m2
13:20 47.9 °F /  8.8 °C 38.9 °F /  3.8 °C 29.39 in /  995.1 hPa West 14.0 mph /  22.5 km/h 14.0 mph /  22.5 km/h 71 % 0.00 in /  0 mm 700 W/m2
13:25 48.0 °F /  8.9 °C 38.7 °F /  3.7 °C 29.39 in /  995.1 hPa West 12.0 mph /  19.3 km/h 15.0 mph /  24.1 km/h 70 % 0.00 in /  0 mm 185 W/m2
13:35 47.1 °F /  8.4 °C 38.2 °F /  3.4 °C 29.39 in /  995.1 hPa West 12.0 mph /  19.3 km/h 16.0 mph /  25.7 km/h 71 % 0.00 in /  0 mm 171 W/m2
13:40 47.0 °F /  8.3 °C 38.1 °F /  3.4 °C 29.39 in /  995.1 hPa West 10.0 mph /  16.1 km/h 11.0 mph /  17.7 km/h 71 % 0.00 in /  0 mm 174 W/m2
13:50 46.4 °F /  8 °C 38.9 °F /  3.8 °C 29.40 in /  995.5 hPa West 14.0 mph /  22.5 km/h 14.0 mph /  22.5 km/h 75 % 0.00 in /  0 mm 88 W/m2
13:55 45.3 °F /  7.4 °C 38.8 °F /  3.8 °C 29.39 in /  995.1 hPa WSW 14.0 mph /  22.5 km/h 14.0 mph /  22.5 km/h 78 % 0.00 in /  0 mm 107 W/m2
14:00 44.4 °F /  6.9 °C 38.6 °F /  3.7 °C 29.39 in /  995.1 hPa WSW 12.0 mph /  19.3 km/h 12.0 mph /  19.3 km/h 80 % 0.00 in /  0 mm 155 W/m2
14:05 44.1 °F /  6.7 °C 38.6 °F /  3.7 °C 29.39 in /  995.1 hPa WSW 9.0 mph /  14.5 km/h 12.0 mph /  19.3 km/h 81 % 0.00 in /  0 mm 114 W/m2
14:15 44.1 °F /  6.7 °C 38.6 °F /  3.7 °C 29.38 in /  994.8 hPa West 8.0 mph /  12.9 km/h 11.0 mph /  17.7 km/h 81 % 0.00 in /  0 mm 320 W/m2
14:20 44.5 °F /  6.9 °C 38.4 °F /  3.6 °C 29.38 in /  994.8 hPa SW 9.0 mph /  14.5 km/h 9.0 mph /  14.5 km/h 79 % 0.00 in /  0 mm 127 W/m2
14:25 44.7 °F /  7.1 °C 38.6 °F /  3.7 °C 29.38 in /  994.8 hPa West 9.0 mph /  14.5 km/h 10.0 mph /  16.1 km/h 79 % 0.00 in /  0 mm 165 W/m2
14:30 44.8 °F /  7.1 °C 38.4 °F /  3.6 °C 29.38 in /  994.8 hPa SW 8.0 mph /  12.9 km/h 8.0 mph /  12.9 km/h 78 % 0.00 in /  0 mm 174 W/m2
14:35 45.0 °F /  7.2 °C 38.6 °F /  3.7 °C 29.38 in /  994.8 hPa WSW 8.0 mph /  12.9 km/h 10.0 mph /  16.1 km/h 78 % 0.00 in /  0 mm 148 W/m2
14:45 45.3 °F /  7.4 °C 38.5 °F /  3.6 °C 29.38 in /  994.8 hPa West 8.0 mph /  12.9 km/h 10.0 mph /  16.1 km/h 77 % 0.00 in /  0 mm 88 W/m2
14:50 45.3 °F /  7.4 °C 38.2 °F /  3.4 °C 29.38 in /  994.8 hPa WSW 8.0 mph /  12.9 km/h 8.0 mph /  12.9 km/h 76 % 0.00 in /  0 mm 77 W/m2
14:55 45.2 °F /  7.3 °C 37.7 °F /  3.2 °C 29.38 in /  994.8 hPa WSW 9.0 mph /  14.5 km/h 9.0 mph /  14.5 km/h 75 % 0.00 in /  0 mm 91 W/m2
15:00 45.2 °F /  7.3 °C 37.7 °F /  3.2 °C 29.38 in /  994.8 hPa West 8.0 mph /  12.9 km/h 8.0 mph /  12.9 km/h 75 % 0.00 in /  0 mm 76 W/m2
15:05 45.2 °F /  7.3 °C 37.7 °F /  3.2 °C 29.38 in /  994.8 hPa WNW 7.0 mph /  11.3 km/h 10.0 mph /  16.1 km/h 75 % 0.00 in /  0 mm 98 W/m2
15:15 45.7 °F /  7.6 °C 38.2 °F /  3.4 °C 29.38 in /  994.8 hPa WSW 6.0 mph /  9.7 km/h 10.0 mph /  16.1 km/h 75 % 0.00 in /  0 mm 190 W/m2
15:20 46.1 °F /  7.8 °C 37.6 °F /  3.1 °C 29.38 in /  994.8 hPa West 7.0 mph /  11.3 km/h 13.0 mph /  20.9 km/h 72 % 0.00 in /  0 mm 320 W/m2
15:30 46.4 °F /  8 °C 37.5 °F /  3.1 °C 29.37 in /  994.5 hPa WSW 8.0 mph /  12.9 km/h 10.0 mph /  16.1 km/h 71 % 0.00 in /  0 mm 107 W/m2
15:35 46.4 °F /  8 °C 37.9 °F /  3.3 °C 29.37 in /  994.5 hPa WSW 7.0 mph /  11.3 km/h 13.0 mph /  20.9 km/h 72 % 0.00 in /  0 mm 178 W/m2
15:40 46.6 °F /  8.1 °C 37.7 °F /  3.2 °C 29.37 in /  994.5 hPa WSW 7.0 mph /  11.3 km/h 7.0 mph /  11.3 km/h 71 % 0.00 in /  0 mm 243 W/m2
15:45 46.8 °F /  8.2 °C 36.8 °F /  2.7 °C 29.37 in /  994.5 hPa WSW 9.0 mph /  14.5 km/h 9.0 mph /  14.5 km/h 68 % 0.00 in /  0 mm 118 W/m2
15:55 46.4 °F /  8 °C 36.0 °F /  2.2 °C 29.37 in /  994.5 hPa WSW 10.0 mph /  16.1 km/h 10.0 mph /  16.1 km/h 67 % 0.00 in /  0 mm 81 W/m2
16:00 46.2 °F /  7.9 °C 36.6 °F /  2.6 °C 29.37 in /  994.5 hPa SW 9.0 mph /  14.5 km/h 10.0 mph /  16.1 km/h 69 % 0.00 in /  0 mm 113 W/m2
16:05 46.1 °F /  7.8 °C 36.5 °F /  2.5 °C 29.37 in /  994.5 hPa West 8.0 mph /  12.9 km/h 10.0 mph /  16.1 km/h 69 % 0.00 in /  0 mm 102 W/m2
16:10 46.0 °F /  7.8 °C 36.8 °F /  2.7 °C 29.37 in /  994.5 hPa West 7.0 mph /  11.3 km/h 10.0 mph /  16.1 km/h 70 % 0.00 in /  0 mm 120 W/m2
16:15 46.1 °F /  7.8 °C 36.9 °F /  2.7 °C 29.37 in /  994.5 hPa WSW 6.0 mph /  9.7 km/h 10.0 mph /  16.1 km/h 70 % 0.00 in /  0 mm 130 W/m2
16:25 46.3 °F /  7.9 °C 36.7 °F /  2.6 °C 29.36 in /  994.1 hPa WNW 9.0 mph /  14.5 km/h 13.0 mph /  20.9 km/h 69 % 0.00 in /  0 mm 88 W/m2
16:30 46.2 °F /  7.9 °C 37.0 °F /  2.8 °C 29.36 in /  994.1 hPa West 9.0 mph /  14.5 km/h 9.0 mph /  14.5 km/h 70 % 0.00 in /  0 mm 83 W/m2
16:35 46.1 °F /  7.8 °C 36.9 °F /  2.7 °C 29.36 in /  994.1 hPa West 8.0 mph /  12.9 km/h 10.0 mph /  16.1 km/h 70 % 0.00 in /  0 mm 84 W/m2
16:40 46.1 °F /  7.8 °C 37.2 °F /  2.9 °C 29.36 in /  994.1 hPa WNW 7.0 mph /  11.3 km/h 7.0 mph /  11.3 km/h 71 % 0.00 in /  0 mm 84 W/m2
16:45 46.0 °F /  7.8 °C 37.1 °F /  2.8 °C 29.36 in /  994.1 hPa West 6.0 mph /  9.7 km/h 10.0 mph /  16.1 km/h 71 % 0.00 in /  0 mm 76 W/m2
16:55 45.9 °F /  7.7 °C 37.4 °F /  3 °C 29.36 in /  994.1 hPa West 5.0 mph /  8 km/h 10.0 mph /  16.1 km/h 72 % 0.00 in /  0 mm 76 W/m2
17:05 45.7 °F /  7.6 °C 37.5 °F /  3.1 °C 29.37 in /  994.5 hPa WNW 5.0 mph /  8 km/h 10.0 mph /  16.1 km/h 73 % 0.00 in /  0 mm 32 W/m2
17:10 45.4 °F /  7.4 °C 36.9 °F /  2.7 °C 29.37 in /  994.5 hPa WSW 7.0 mph /  11.3 km/h 7.0 mph /  11.3 km/h 72 % 0.00 in /  0 mm 25 W/m2
17:15 45.2 °F /  7.3 °C 37.1 °F /  2.8 °C 29.37 in /  994.5 hPa West 7.0 mph /  11.3 km/h 10.0 mph /  16.1 km/h 73 % 0.00 in /  0 mm 19 W/m2
17:20 45.0 °F /  7.2 °C 36.9 °F /  2.7 °C 29.37 in /  994.5 hPa West 5.0 mph /  8 km/h 10.0 mph /  16.1 km/h 73 % 0.00 in /  0 mm 18 W/m2
17:25 44.8 °F /  7.1 °C 37.0 °F /  2.8 °C 29.37 in /  994.5 hPa West 4.0 mph /  6.4 km/h 10.0 mph /  16.1 km/h 74 % 0.00 in /  0 mm 14 W/m2
17:30 44.6 °F /  7 °C 37.2 °F /  2.9 °C 29.37 in /  994.5 hPa West 4.0 mph /  6.4 km/h 10.0 mph /  16.1 km/h 75 % 0.00 in /  0 mm 11 W/m2
17:35 44.4 °F /  6.9 °C 37.0 °F /  2.8 °C 29.37 in /  994.5 hPa WNW 4.0 mph /  6.4 km/h 10.0 mph /  16.1 km/h 75 % 0.00 in /  0 mm 9 W/m2
17:40 44.1 °F /  6.7 °C 36.7 °F /  2.6 °C 29.37 in /  994.5 hPa WNW 5.0 mph /  8 km/h 10.0 mph /  16.1 km/h 75 % 0.00 in /  0 mm 5 W/m2
17:45 43.8 °F /  6.6 °C 36.7 °F /  2.6 °C 29.37 in /  994.5 hPa West 6.0 mph /  9.7 km/h 10.0 mph /  16.1 km/h 76 % 0.00 in /  0 mm 0 W/m2
17:50 43.7 °F /  6.5 °C 36.6 °F /  2.6 °C 29.37 in /  994.5 hPa WSW 6.0 mph /  9.7 km/h 6.0 mph /  9.7 km/h 76 % 0.00 in /  0 mm 0 W/m2
17:55 43.5 °F /  6.4 °C 36.4 °F /  2.4 °C 29.37 in /  994.5 hPa West 6.0 mph /  9.7 km/h 10.0 mph /  16.1 km/h 76 % 0.00 in /  0 mm 0 W/m2
18:05 43.2 °F /  6.2 °C 36.5 °F /  2.5 °C 29.37 in /  994.5 hPa WSW 4.0 mph /  6.4 km/h 10.0 mph /  16.1 km/h 77 % 0.00 in /  0 mm 0 W/m2
18:10 43.0 °F /  6.1 °C 36.3 °F /  2.4 °C 29.38 in /  994.8 hPa West 4.0 mph /  6.4 km/h 4.0 mph /  6.4 km/h 77 % 0.00 in /  0 mm 0 W/m2
18:15 42.9 °F /  6.1 °C 36.2 °F /  2.3 °C 29.37 in /  994.5 hPa West 3.0 mph /  4.8 km/h 5.0 mph /  8 km/h 77 % 0.00 in /  0 mm 0 W/m2
18:25 42.6 °F /  5.9 °C 36.2 °F /  2.3 °C 29.37 in /  994.5 hPa West 3.0 mph /  4.8 km/h 10.0 mph /  16.1 km/h 78 % 0.00 in /  0 mm 0 W/m2
18:30 42.5 °F /  5.8 °C 36.1 °F /  2.3 °C 29.37 in /  994.5 hPa West 3.0 mph /  4.8 km/h 3.0 mph /  4.8 km/h 78 % 0.00 in /  0 mm 0 W/m2
18:40 42.2 °F /  5.7 °C 35.8 °F /  2.1 °C 29.37 in /  994.5 hPa West 1.0 mph /  1.6 km/h 1.0 mph /  1.6 km/h 78 % 0.00 in /  0 mm 0 W/m2
18:45 42.1 °F /  5.6 °C 36.1 °F /  2.3 °C 29.37 in /  994.5 hPa Calm   10.0 mph /  16.1 km/h 79 % 0.00 in /  0 mm 0 W/m2
18:50 41.9 °F /  5.5 °C 35.9 °F /  2.2 °C 29.37 in /  994.5 hPa Calm   10.0 mph /  16.1 km/h 79 % 0.00 in /  0 mm 0 W/m2
18:55 41.7 °F /  5.4 °C 35.3 °F /  1.8 °C 29.37 in /  994.5 hPa Calm   10.0 mph /  16.1 km/h 78 % 0.00 in /  0 mm 0 W/m2
19:00 41.4 °F /  5.2 °C 35.4 °F /  1.9 °C 29.36 in /  994.1 hPa Calm   10.0 mph /  16.1 km/h 79 % 0.00 in /  0 mm 0 W/m2
19:05 41.1 °F /  5.1 °C 35.1 °F /  1.7 °C 29.36 in /  994.1 hPa Calm   10.0 mph /  16.1 km/h 79 % 0.00 in /  0 mm 0 W/m2
19:10 40.8 °F /  4.9 °C 35.1 °F /  1.7 °C 29.36 in /  994.1 hPa Calm   10.0 mph /  16.1 km/h 80 % 0.00 in /  0 mm 0 W/m2
19:15 40.5 °F /  4.7 °C 34.8 °F /  1.6 °C 29.36 in /  994.1 hPa Calm   10.0 mph /  16.1 km/h 80 % 0.00 in /  0 mm 0 W/m2
19:20 40.1 °F /  4.5 °C 34.7 °F /  1.5 °C 29.37 in /  994.5 hPa Calm   10.0 mph /  16.1 km/h 81 % 0.00 in /  0 mm 0 W/m2
19:25 39.7 °F /  4.3 °C 34.7 °F /  1.5 °C 29.36 in /  994.1 hPa Calm   10.0 mph /  16.1 km/h 82 % 0.00 in /  0 mm 0 W/m2
19:30 39.4 °F /  4.1 °C 34.4 °F /  1.3 °C 29.36 in /  994.1 hPa Calm   10.0 mph /  16.1 km/h 82 % 0.00 in /  0 mm 0 W/m2
19:40 38.9 °F /  3.8 °C 34.2 °F /  1.2 °C 29.36 in /  994.1 hPa Calm   10.0 mph /  16.1 km/h 83 % 0.00 in /  0 mm 0 W/m2
19:45 38.7 °F /  3.7 °C 34.3 °F /  1.3 °C 29.36 in /  994.1 hPa Calm   10.0 mph /  16.1 km/h 84 % 0.00 in /  0 mm 0 W/m2
19:55 38.3 °F /  3.5 °C 34.2 °F /  1.2 °C 29.36 in /  994.1 hPa Calm   10.0 mph /  16.1 km/h 85 % 0.00 in /  0 mm 0 W/m2
20:00 38.1 °F /  3.4 °C 34.0 °F /  1.1 °C 29.36 in /  994.1 hPa Calm   10.0 mph /  16.1 km/h 85 % 0.00 in /  0 mm 0 W/m2
20:05 37.9 °F /  3.3 °C 33.8 °F /  1 °C 29.36 in /  994.1 hPa Calm   10.0 mph /  16.1 km/h 85 % 0.00 in /  0 mm 0 W/m2
20:10 37.8 °F /  3.2 °C 34.0 °F /  1.1 °C 29.36 in /  994.1 hPa Calm   10.0 mph /  16.1 km/h 86 % 0.00 in /  0 mm 0 W/m2
20:20 37.6 °F /  3.1 °C 33.8 °F /  1 °C 29.35 in /  993.8 hPa Calm   10.0 mph /  16.1 km/h 86 % 0.00 in /  0 mm 0 W/m2
20:25 37.5 °F /  3.1 °C 33.7 °F /  0.9 °C 29.35 in /  993.8 hPa Calm   10.0 mph /  16.1 km/h 86 % 0.00 in /  0 mm 0 W/m2
20:30 37.4 °F /  3 °C 33.6 °F /  0.9 °C 29.35 in /  993.8 hPa Calm   10.0 mph /  16.1 km/h 86 % 0.00 in /  0 mm 0 W/m2
20:35 37.3 °F /  2.9 °C 33.5 °F /  0.8 °C 29.35 in /  993.8 hPa Calm   10.0 mph /  16.1 km/h 86 % 0.00 in /  0 mm 0 W/m2
20:40 37.2 °F /  2.9 °C 33.4 °F /  0.8 °C 29.35 in /  993.8 hPa Calm   10.0 mph /  16.1 km/h 86 % 0.00 in /  0 mm 0 W/m2
20:45 37.1 °F /  2.8 °C 33.6 °F /  0.9 °C 29.35 in /  993.8 hPa Calm   10.0 mph /  16.1 km/h 87 % 0.00 in /  0 mm 0 W/m2
20:55 36.8 °F /  2.7 °C 33.3 °F /  0.7 °C 29.35 in /  993.8 hPa Calm   10.0 mph /  16.1 km/h 87 % 0.00 in /  0 mm 0 W/m2
21:00 36.5 °F /  2.5 °C 32.7 °F /  0.4 °C 29.35 in /  993.8 hPa Calm   10.0 mph /  16.1 km/h 86 % 0.00 in /  0 mm 0 W/m2
21:05 36.2 °F /  2.3 °C 32.7 °F /  0.4 °C 29.35 in /  993.8 hPa Calm   10.0 mph /  16.1 km/h 87 % 0.00 in /  0 mm 0 W/m2
21:10 35.9 °F /  2.2 °C 32.4 °F /  0.2 °C 29.35 in /  993.8 hPa Calm   10.0 mph /  16.1 km/h 87 % 0.00 in /  0 mm 0 W/m2
21:20 35.7 °F /  2.1 °C 32.5 °F /  0.3 °C 29.35 in /  993.8 hPa West 1.0 mph /  1.6 km/h 1.0 mph /  1.6 km/h 88 % 0.00 in /  0 mm 0 W/m2
21:30 35.7 °F /  2.1 °C 32.8 °F /  0.4 °C 29.35 in /  993.8 hPa Calm   10.0 mph /  16.1 km/h 89 % 0.00 in /  0 mm 0 W/m2
21:35 35.7 °F /  2.1 °C 32.8 °F /  0.4 °C 29.35 in /  993.8 hPa West 1.0 mph /  1.6 km/h 10.0 mph /  16.1 km/h 89 % 0.00 in /  0 mm 0 W/m2
21:40 35.8 °F /  2.1 °C 33.2 °F /  0.7 °C 29.35 in /  993.8 hPa WSW 2.0 mph /  3.2 km/h 10.0 mph /  16.1 km/h 90 % 0.00 in /  0 mm 0 W/m2
21:45 36.3 °F /  2.4 °C 33.6 °F /  0.9 °C 29.35 in /  993.8 hPa SW 4.0 mph /  6.4 km/h 10.0 mph /  16.1 km/h 90 % 0.00 in /  0 mm 0 W/m2
21:50 36.7 °F /  2.6 °C 34.0 °F /  1.1 °C 29.35 in /  993.8 hPa SW 3.0 mph /  4.8 km/h 3.0 mph /  4.8 km/h 90 % 0.00 in /  0 mm 0 W/m2
22:00 37.3 °F /  2.9 °C 34.6 °F /  1.4 °C 29.34 in /  993.5 hPa SW 2.0 mph /  3.2 km/h 10.0 mph /  16.1 km/h 90 % 0.00 in /  0 mm 0 W/m2
22:05 37.8 °F /  3.2 °C 35.1 °F /  1.7 °C 29.34 in /  993.5 hPa WSW 4.0 mph /  6.4 km/h 10.0 mph /  16.1 km/h 90 % 0.00 in /  0 mm 0 W/m2
22:10 38.2 °F /  3.4 °C 35.2 °F /  1.8 °C 29.34 in /  993.5 hPa SW 4.0 mph /  6.4 km/h 4.0 mph /  6.4 km/h 89 % 0.00 in /  0 mm 0 W/m2
22:15 38.4 °F /  3.6 °C 35.4 °F /  1.9 °C 29.34 in /  993.5 hPa WSW 3.0 mph /  4.8 km/h 6.0 mph /  9.7 km/h 89 % 0.00 in /  0 mm 0 W/m2
22:20 38.6 °F /  3.7 °C 35.6 °F /  2 °C 29.34 in /  993.5 hPa WSW 2.0 mph /  3.2 km/h 10.0 mph /  16.1 km/h 89 % 0.00 in /  0 mm 0 W/m2
22:25 38.7 °F /  3.7 °C 35.7 °F /  2.1 °C 29.34 in /  993.5 hPa WSW 2.0 mph /  3.2 km/h 10.0 mph /  16.1 km/h 89 % 0.00 in /  0 mm 0 W/m2
22:35 38.8 °F /  3.8 °C 35.8 °F /  2.1 °C 29.33 in /  993.1 hPa WSW 1.0 mph /  1.6 km/h 2.0 mph /  3.2 km/h 89 % 0.00 in /  0 mm 0 W/m2
22:40 38.9 °F /  3.8 °C 35.9 °F /  2.2 °C 29.33 in /  993.1 hPa WSW 2.0 mph /  3.2 km/h 10.0 mph /  16.1 km/h 89 % 0.00 in /  0 mm 0 W/m2
22:50 38.9 °F /  3.8 °C 35.9 °F /  2.2 °C 29.33 in /  993.1 hPa WSW 2.0 mph /  3.2 km/h 2.0 mph /  3.2 km/h 89 % 0.00 in /  0 mm 0 W/m2
22:55 39.0 °F /  3.9 °C 36.0 °F /  2.2 °C 29.33 in /  993.1 hPa WNW 2.0 mph /  3.2 km/h 4.0 mph /  6.4 km/h 89 % 0.00 in /  0 mm 0 W/m2
23:00 39.1 °F /  3.9 °C 36.1 °F /  2.3 °C 29.34 in /  993.5 hPa WNW 4.0 mph /  6.4 km/h 10.0 mph /  16.1 km/h 89 % 0.00 in /  0 mm 0 W/m2
23:10 39.1 °F /  3.9 °C 36.4 °F /  2.4 °C 29.34 in /  993.5 hPa West 5.0 mph /  8 km/h 10.0 mph /  16.1 km/h 90 % 0.00 in /  0 mm 0 W/m2
23:15 39.1 °F /  3.9 °C 36.4 °F /  2.4 °C 29.34 in /  993.5 hPa West 5.0 mph /  8 km/h 10.0 mph /  16.1 km/h 90 % 0.00 in /  0 mm 0 W/m2
23:20 39.1 °F /  3.9 °C 36.4 °F /  2.4 °C 29.34 in /  993.5 hPa West 3.0 mph /  4.8 km/h 10.0 mph /  16.1 km/h 90 % 0.00 in /  0 mm 0 W/m2
23:25 39.0 °F /  3.9 °C 36.3 °F /  2.4 °C 29.34 in /  993.5 hPa West 3.0 mph /  4.8 km/h 10.0 mph /  16.1 km/h 90 % 0.00 in /  0 mm 0 W/m2
23:30 39.0 °F /  3.9 °C 36.6 °F /  2.6 °C 29.34 in /  993.5 hPa WSW 3.0 mph /  4.8 km/h 10.0 mph /  16.1 km/h 91 % 0.00 in /  0 mm 0 W/m2
23:40 38.9 °F /  3.8 °C 36.5 °F /  2.5 °C 29.33 in /  993.1 hPa WSW 5.0 mph /  8 km/h 5.0 mph /  8 km/h 91 % 0.00 in /  0 mm 0 W/m2
23:45 38.8 °F /  3.8 °C 36.4 °F /  2.4 °C 29.33 in /  993.1 hPa West 5.0 mph /  8 km/h 7.0 mph /  11.3 km/h 91 % 0.00 in /  0 mm 0 W/m2
23:50 38.8 °F /  3.8 °C 36.4 °F /  2.4 °C 29.34 in /  993.5 hPa WNW 6.0 mph /  9.7 km/h 10.0 mph /  16.1 km/h 91 % 0.00 in /  0 mm 0 W/m2
23:55 38.7 °F /  3.7 °C 36.3 °F /  2.4 °C 29.34 in /  993.5 hPa WSW 8.0 mph /  12.9 km/h 10.0 mph /  16.1 km/h 91 % 0.00 in /  0 mm 0 W/m2
Delerius-Weather
Compliments of Weather Underground - 2 mb

Data updates at regular intervals.